Allen, OK

10:10 AM CST on January 31, 2015 (GMT -0600)
Emergency Operations Center | Change Station
CLOSE
Current Station
Personal Weather Station
Location: Holdenville, OK
Elevation: 908 ft
Nearby Weather Stations

Elev 908 ft 35.08 °N, 96.40 °W | Updated 35 seconds ago

Overcast
Overcast
44.5 °F
Feels Like 42 °F
N
5.0
Wind Variable Wind from SSE
Gusts 5.0 mph

Today
High -- | Low -- °F
--% Chance of Precip.
Yesterday
High -- | Low -- °F
Precip. -- in
7:25 AM 5:53 PM
Waxing Gibbous, 90% visible
Pressure 30.20 in
Visibility 10.0 miles
Clouds Scattered Clouds 5000 ft
Scattered Clouds 12000 ft
Windchill 42 °F
Dew Point 33 °F
Humidity 64%
Rainfall 0.00 in
Snow Depth Not available.
UV 2 out of 12
Pollen 2.80 out of 12
Air Quality Not available.
Flu Activity Not available.
METAR KADH 311555Z AUTO 14012KT 10SM SCT050 SCT120 06/00 A3020 RMK AO2

More Conditions Fewer Conditions

Pressure 30.20 in
Visibility 10.0 miles
Clouds Scattered Clouds 5000 ft
Scattered Clouds 12000 ft
Windchill 42 °F
Dew Point 33 °F
Humidity 64%
Rainfall 0.00 in
Snow Depth Not available.
UV 2 out of 12
Pollen 2.80 out of 12
Air Quality Not available.
Flu Activity Not available.
METAR KADH 311555Z AUTO 14012KT 10SM SCT050 SCT120 06/00 A3020 RMK AO2

More Conditions Fewer Conditions

10-Day Weather Forecast

Almanac

Astronomy

Jan. 31, 2015 Rise Set
Actual Time
Civil Twilight
Nautical Twilight
Astronomical Twilight
Moon
Length of Visible Light
Length of Day
Tomorrow will be .
, % of the Moon is Illuminated

Today's Extremes

State Highs State Lows

Community

WunderPhotos

Upload Photos

1,792,098 photos uploaded!

WunderBlogs® & News

Nearby

Air Quality

  Air Quality AQ Index Pollutant
Not available.

Snow Depth

Station Depth Elevation

Earthquake Activity

City Distance Mag. Time & Date
Minimum magnitude displayed is 2.5.

Coastal Water Temperatures

Place Temperature

Nearby Weather Stations